Time;durP1;ratioP1;P1;durP2;ratioP2;P2;SDS_P1;SDS_P2;PMS_P1;PMS_P2;Temp;Humidity;BMP_temperature;BMP_pressure;BME280_temperature;BME280_humidity;BME280_pressure;Samples;Min_cycle;Max_cycle;Signal;HPM_P1;HPM_P2
2023/01/05 00:01:30;;;;;;;42.22;6.53;;;13.60;99.90;;;;;;5071764;28;20107;-74
2023/01/05 00:03:56;;;;;;;37.90;5.28;;;13.60;99.90;;;;;;5072004;28;20112;-74
2023/01/05 00:06:22;;;;;;;61.22;7.95;;;13.60;99.90;;;;;;5071634;28;20031;-74
2023/01/05 00:08:47;;;;;;;60.03;7.47;;;13.60;99.90;;;;;;5071644;28;20032;-73
2023/01/05 00:22:33;;;;;;;41.78;7.72;;;13.60;99.90;;;;;;5072356;28;20039;-73
2023/01/05 00:25:23;;;;;;;50.38;5.93;;;13.70;99.90;;;;;;5074550;28;20028;-74
2023/01/05 00:27:50;;;;;;;53.78;6.72;;;13.60;99.90;;;;;;5072964;28;20503;-73
2023/01/05 00:30:19;;;;;;;58.03;6.60;;;13.60;99.90;;;;;;5072302;28;20366;-74
2023/01/05 00:32:45;;;;;;;50.88;6.88;;;13.60;99.90;;;;;;5072638;28;20052;-73
2023/01/05 00:35:13;;;;;;;52.45;6.28;;;13.50;99.90;;;;;;5072582;28;20020;-73
2023/01/05 00:37:39;;;;;;;60.75;7.70;;;13.60;99.90;;;;;;5073029;28;20469;-72
2023/01/05 00:40:13;;;;;;;49.58;5.45;;;13.60;99.90;;;;;;5073201;28;20488;-72
2023/01/05 00:42:39;;;;;;;58.22;7.25;;;13.60;99.90;;;;;;5075552;28;20035;-72
2023/01/05 00:45:07;;;;;;;52.95;6.55;;;13.60;99.90;;;;;;5083775;28;20020;-73
2023/01/05 00:47:32;;;;;;;59.33;8.05;;;13.70;99.90;;;;;;5084944;28;20037;-74
2023/01/05 00:49:58;;;;;;;47.90;7.68;;;13.70;99.90;;;;;;5084195;28;20028;-72
2023/01/05 00:52:24;;;;;;;60.80;7.35;;;13.70;99.90;;;;;;5084072;28;20070;-73
2023/01/05 00:54:49;;;;;;;56.60;7.07;;;13.70;99.90;;;;;;5079898;28;20112;-73
2023/01/05 00:57:15;;;;;;;54.65;7.03;;;13.70;99.90;;;;;;5085186;28;20024;-74
2023/01/05 00:59:41;;;;;;;68.22;6.75;;;13.70;99.90;;;;;;5078949;28;20482;-73
2023/01/05 01:02:07;;;;;;;44.97;5.15;;;13.60;99.90;;;;;;5078837;28;20021;-74
2023/01/05 01:04:34;;;;;;;58.42;8.88;;;13.60;99.90;;;;;;5079392;28;20549;-73
2023/01/05 01:07:00;;;;;;;56.97;7.13;;;13.60;99.90;;;;;;5072408;28;20484;-74
2023/01/05 01:09:26;;;;;;;51.45;6.97;;;13.60;99.90;;;;;;5071035;28;20048;-73
2023/01/05 01:11:52;;;;;;;59.75;7.10;;;13.60;99.90;;;;;;5070225;28;20082;-74
2023/01/05 01:14:18;;;;;;;53.10;6.72;;;13.60;99.90;;;;;;5069345;28;20048;-75
2023/01/05 01:16:43;;;;;;;65.63;10.30;;;13.60;99.90;;;;;;5071186;28;20108;-74
2023/01/05 01:19:23;;;;;;;60.25;8.35;;;13.60;99.90;;;;;;5071159;28;20469;-74
2023/01/05 01:21:50;;;;;;;65.75;9.65;;;13.60;99.90;;;;;;5071079;28;20024;-74
2023/01/05 01:24:24;;;;;;;51.30;6.93;;;13.60;99.90;;;;;;5070846;28;20024;-75
2023/01/05 01:26:51;;;;;;;58.05;7.82;;;13.50;99.90;;;;;;5069354;28;20488;-74
2023/01/05 01:29:17;;;;;;;64.53;8.35;;;13.50;99.90;;;;;;5070837;28;20449;-75
2023/01/05 01:31:46;;;;;;;65.07;9.68;;;13.50;99.90;;;;;;5069581;28;20103;-74
2023/01/05 01:34:12;;;;;;;54.75;8.80;;;13.50;99.90;;;;;;5070946;28;20039;-73
2023/01/05 01:36:38;;;;;;;67.43;7.93;;;13.40;99.90;;;;;;5070806;28;20028;-74
2023/01/05 01:39:03;;;;;;;55.83;6.55;;;13.50;99.90;;;;;;5070719;28;20365;-74
2023/01/05 01:41:29;;;;;;;83.18;6.95;;;13.50;99.90;;;;;;5070498;28;20078;-74
2023/01/05 01:43:56;;;;;;;61.35;6.00;;;13.50;99.90;;;;;;5070705;28;20052;-74
2023/01/05 01:46:24;;;;;;;67.47;9.00;;;13.40;99.90;;;;;;5070737;28;20083;-72
2023/01/05 01:49:07;;;;;;;49.67;7.68;;;13.30;99.90;;;;;;5070539;28;20044;-74
2023/01/05 01:51:51;;;;;;;56.67;8.32;;;13.30;99.90;;;;;;5070769;28;20518;-73
2023/01/05 01:54:17;;;;;;;53.25;8.27;;;13.30;99.90;;;;;;5070283;28;20091;-74
2023/01/05 01:56:47;;;;;;;68.80;7.85;;;13.30;99.90;;;;;;5070665;28;20553;-74
2023/01/05 01:59:14;;;;;;;51.65;6.80;;;13.30;99.90;;;;;;5070714;28;20033;-75
2023/01/05 02:01:40;;;;;;;72.28;7.35;;;13.30;99.90;;;;;;5070362;28;20028;-75
2023/01/05 02:04:06;;;;;;;88.68;10.15;;;13.40;99.90;;;;;;5070353;28;20026;-73
2023/01/05 02:06:32;;;;;;;54.13;6.63;;;13.50;99.90;;;;;;5073984;28;20063;-74
2023/01/05 02:08:58;;;;;;;64.88;6.95;;;13.50;99.90;;;;;;5073858;28;20640;-75
2023/01/05 02:11:49;;;;;;;53.90;6.38;;;13.60;99.90;;;;;;5073900;28;20024;-74
2023/01/05 02:14:35;;;;;;;68.93;7.13;;;13.60;99.90;;;;;;5073897;28;20170;-74
2023/01/05 02:17:18;;;;;;;62.35;7.57;;;13.60;99.90;;;;;;5072575;28;20037;-74
2023/01/05 02:20:24;;;;;;;83.88;8.93;;;13.60;99.90;;;;;;5074162;28;20377;-74
2023/01/05 02:23:15;;;;;;;83.05;8.80;;;13.60;99.90;;;;;;5072308;28;20432;-74
2023/01/05 02:25:49;;;;;;;79.15;9.57;;;13.60;99.90;;;;;;5073989;28;20116;-74
2023/01/05 02:28:43;;;;;;;84.47;8.73;;;13.50;99.90;;;;;;5073987;28;20079;-74
2023/01/05 02:31:16;;;;;;;66.38;7.40;;;13.50;99.90;;;;;;5076844;28;20025;-75
2023/01/05 02:34:07;;;;;;;49.67;6.75;;;13.50;99.90;;;;;;5073046;28;20024;-75
2023/01/05 02:36:52;;;;;;;64.67;6.83;;;13.50;99.90;;;;;;5073665;28;20044;-74
2023/01/05 02:39:24;;;;;;;89.63;8.13;;;13.50;99.90;;;;;;5073566;28;20036;-74
2023/01/05 02:41:53;;;;;;;;;;;13.50;99.90;;;;;;5073952;28;20021;-74
2023/01/05 02:44:19;;;;;;;78.63;8.07;;;13.50;99.90;;;;;;5073322;28;19911;-74
2023/01/05 02:46:46;;;;;;;63.67;9.98;;;13.40;99.90;;;;;;5073280;28;20649;-74
2023/01/05 02:49:15;;;;;;;92.93;9.45;;;13.40;99.90;;;;;;5073519;28;20029;-74
2023/01/05 02:51:48;;;;;;;74.90;7.95;;;13.30;99.90;;;;;;5073387;28;20103;-74
2023/01/05 02:54:16;;;;;;;58.28;9.27;;;13.30;99.90;;;;;;5073194;28;20032;-74
2023/01/05 02:57:01;;;;;;;59.50;6.80;;;13.30;99.90;;;;;;5073234;28;20469;-74
2023/01/05 02:59:36;;;;;;;77.60;7.15;;;13.30;99.90;;;;;;5073658;28;20024;-74
2023/01/05 03:02:10;;;;;;;83.38;8.82;;;13.30;99.90;;;;;;5073163;28;20024;-75
2023/01/05 03:04:44;;;;;;;69.47;7.35;;;13.30;99.90;;;;;;5073221;28;20024;-73
2023/01/05 03:07:14;;;;;;;56.05;7.43;;;13.40;99.90;;;;;;5073058;28;20024;-74
2023/01/05 03:09:41;;;;;;;53.28;6.68;;;13.40;99.90;;;;;;5072514;28;20373;-75
2023/01/05 03:15:27;;;;;;;77.15;8.80;;;13.50;99.90;;;;;;5074141;28;20515;-74
2023/01/05 03:17:56;;;;;;;69.60;9.93;;;13.50;99.90;;;;;;5072552;28;20027;-75
2023/01/05 03:20:26;;;;;;;58.25;6.20;;;13.50;99.90;;;;;;5074582;28;20024;-74
2023/01/05 03:37:26;;;;;;;71.72;8.50;;;13.50;99.90;;;;;;5089647;28;20042;-75
2023/01/05 03:39:52;;;;;;;51.47;6.78;;;13.50;99.90;;;;;;5086290;28;20016;-74
2023/01/05 03:42:19;;;;;;;61.78;6.18;;;13.50;99.90;;;;;;5072503;28;20273;-74
2023/01/05 03:44:45;;;;;;;80.22;6.32;;;13.50;99.90;;;;;;5072686;28;20069;-74
2023/01/05 03:47:12;;;;;;;77.78;7.53;;;13.50;99.90;;;;;;5072346;28;20032;-74
2023/01/05 03:49:38;;;;;;;68.45;6.88;;;13.50;99.90;;;;;;5072277;28;20374;-74
2023/01/05 03:52:04;;;;;;;62.90;8.50;;;13.50;99.90;;;;;;5072276;28;20032;-75
2023/01/05 03:54:30;;;;;;;66.53;7.32;;;13.50;99.90;;;;;;5072198;28;20472;-74
2023/01/05 03:56:56;;;;;;;56.40;6.72;;;13.50;99.90;;;;;;5070838;28;20024;-75
2023/01/05 03:59:21;;;;;;;60.78;9.63;;;13.50;99.90;;;;;;5072359;28;20439;-74
2023/01/05 04:01:47;;;;;;;72.28;6.93;;;13.50;99.90;;;;;;5071776;28;20366;-74
2023/01/05 04:04:13;;;;;;;60.85;7.43;;;13.60;99.90;;;;;;5071826;28;20067;-74
2023/01/05 04:06:39;;;;;;;63.88;7.65;;;13.50;99.90;;;;;;5070442;28;20055;-74
2023/01/05 04:09:05;;;;;;;71.32;7.38;;;13.50;99.90;;;;;;5071945;28;20056;-74
2023/01/05 04:11:30;;;;;;;85.35;7.22;;;13.50;99.90;;;;;;5071471;28;20552;-75
2023/01/05 04:13:56;;;;;;;58.72;6.78;;;13.50;99.90;;;;;;5070245;28;20068;-75
2023/01/05 04:16:22;;;;;;;49.67;5.53;;;13.60;99.90;;;;;;5070281;28;20059;-75
2023/01/05 04:18:48;;;;;;;61.63;7.28;;;13.50;99.90;;;;;;5071786;28;20020;-75
2023/01/05 04:21:14;;;;;;;64.28;7.22;;;13.50;99.90;;;;;;5071536;28;20055;-75
2023/01/05 04:23:40;;;;;;;69.32;6.32;;;13.50;99.90;;;;;;5070053;28;20032;-74
2023/01/05 04:26:06;;;;;;;77.47;7.40;;;13.50;99.90;;;;;;5071373;28;20119;-74
2023/01/05 04:28:31;;;;;;;70.30;6.65;;;13.50;99.90;;;;;;5071051;28;20491;-75
2023/01/05 04:30:57;;;;;;;64.38;6.88;;;13.50;99.90;;;;;;5070203;28;20028;-74
2023/01/05 04:33:24;;;;;;;63.17;7.88;;;13.50;99.90;;;;;;5070339;28;20024;-75
2023/01/05 04:35:49;;;;;;;68.30;7.07;;;13.50;99.90;;;;;;5072256;28;20024;-75
2023/01/05 04:38:15;;;;;;;59.92;5.80;;;13.50;99.90;;;;;;5071955;28;20017;-74
2023/01/05 04:40:41;;;;;;;62.03;6.47;;;13.50;99.90;;;;;;5071478;28;20028;-75
2023/01/05 04:43:07;;;;;;;65.45;6.97;;;13.50;99.90;;;;;;5071301;28;20028;-74
2023/01/05 04:45:33;;;;;;;64.22;5.80;;;13.50;99.90;;;;;;5071335;28;20032;-74
2023/01/05 04:47:59;;;;;;;59.08;6.68;;;13.50;99.90;;;;;;5071061;28;20452;-74
2023/01/05 04:50:27;;;;;;;63.63;6.43;;;13.50;99.90;;;;;;5071375;28;20020;-74
2023/01/05 04:52:52;;;;;;;58.08;6.18;;;13.50;99.90;;;;;;5071102;28;20035;-74
2023/01/05 04:55:18;;;;;;;72.18;7.00;;;13.50;99.90;;;;;;5070847;28;20025;-75
2023/01/05 04:57:44;;;;;;;94.15;9.48;;;13.50;99.90;;;;;;5071301;28;20035;-76
2023/01/05 05:00:10;;;;;;;61.13;7.00;;;13.50;99.90;;;;;;5071124;28;20368;-75
2023/01/05 05:02:36;;;;;;;59.03;6.90;;;13.50;99.90;;;;;;5070117;28;20032;-75
2023/01/05 05:05:02;;;;;;;62.65;6.30;;;13.50;99.90;;;;;;5063668;28;20116;-76
2023/01/05 05:07:28;;;;;;;78.25;7.65;;;13.50;99.90;;;;;;5068265;28;20044;-76
2023/01/05 05:09:53;;;;;;;76.95;9.20;;;13.50;99.90;;;;;;5073795;28;20021;-75
2023/01/05 05:12:19;;;;;;;73.97;7.20;;;13.50;99.90;;;;;;5066706;28;20629;-75
2023/01/05 05:14:48;;;;;;;53.97;5.72;;;13.40;99.90;;;;;;5071242;28;20045;-75
2023/01/05 05:17:15;;;;;;;51.53;6.82;;;13.40;99.90;;;;;;5050768;28;20478;-76
2023/01/05 05:19:41;;;;;;;71.10;9.38;;;13.40;99.90;;;;;;5049242;28;20028;-74
2023/01/05 05:22:07;;;;;;;67.68;6.35;;;13.40;99.90;;;;;;5058322;28;20025;-77
2023/01/05 05:24:33;;;;;;;66.32;6.95;;;13.40;99.90;;;;;;5069777;28;20064;-74
2023/01/05 05:26:59;;;;;;;72.43;5.90;;;13.40;99.90;;;;;;5055868;28;20060;-75
2023/01/05 05:29:25;;;;;;;68.47;8.27;;;13.40;99.90;;;;;;5050759;28;20126;-73
2023/01/05 05:31:51;;;;;;;68.60;7.55;;;13.40;99.90;;;;;;5050991;28;20473;-76
2023/01/05 05:34:17;;;;;;;67.03;7.68;;;13.40;99.90;;;;;;5051885;28;20029;-75
2023/01/05 05:36:43;;;;;;;78.88;7.68;;;13.40;99.90;;;;;;5050627;28;20094;-76
2023/01/05 05:39:13;;;;;;;71.00;7.68;;;13.40;99.90;;;;;;5050478;28;20028;-75
2023/01/05 05:41:39;;;;;;;58.85;6.93;;;13.40;99.90;;;;;;5054737;28;20021;-76
2023/01/05 05:44:04;;;;;;;75.45;8.73;;;13.50;99.90;;;;;;5054560;28;20492;-75
2023/01/05 05:46:30;;;;;;;74.90;6.85;;;13.40;99.90;;;;;;5069431;28;20665;-75
2023/01/05 05:48:57;;;;;;;63.10;7.80;;;13.40;99.90;;;;;;5073462;28;20036;-75
2023/01/05 05:51:23;;;;;;;81.32;7.82;;;13.40;99.90;;;;;;5074192;28;20032;-75
2023/01/05 05:53:50;;;;;;;73.45;9.25;;;13.40;99.90;;;;;;5074217;28;20032;-76
2023/01/05 05:56:16;;;;;;;64.00;5.20;;;13.40;99.90;;;;;;5074385;28;20025;-76
2023/01/05 05:58:42;;;;;;;68.97;6.40;;;13.40;99.90;;;;;;5073879;28;20159;-76
2023/01/05 06:01:08;;;;;;;62.13;7.38;;;13.40;99.90;;;;;;5064406;28;20426;-76
2023/01/05 06:03:33;;;;;;;63.05;6.80;;;13.30;99.90;;;;;;5064966;28;20059;-75
2023/01/05 06:06:00;;;;;;;58.15;7.15;;;13.40;99.90;;;;;;5073023;28;20028;-76
2023/01/05 06:08:28;;;;;;;57.15;6.78;;;13.40;99.90;;;;;;5071222;28;20048;-75
2023/01/05 06:10:54;;;;;;;79.05;8.50;;;13.40;99.90;;;;;;5073373;28;20472;-76
2023/01/05 06:13:20;;;;;;;67.85;7.72;;;13.40;99.90;;;;;;5071887;28;20405;-75
2023/01/05 06:15:45;;;;;;;54.72;6.78;;;13.40;99.90;;;;;;5070333;28;20021;-76
2023/01/05 06:18:11;;;;;;;69.35;8.65;;;13.40;99.90;;;;;;5072868;28;20055;-75
2023/01/05 06:20:37;;;;;;;74.30;8.60;;;13.40;99.90;;;;;;5072857;28;20017;-76
2023/01/05 06:23:03;;;;;;;79.28;6.07;;;13.40;99.90;;;;;;5073731;28;20036;-75
2023/01/05 06:25:28;;;;;;;67.65;8.60;;;13.40;99.90;;;;;;5073379;28;20024;-76
2023/01/05 06:27:54;;;;;;;78.75;7.82;;;13.40;99.90;;;;;;5073492;28;20082;-75
2023/01/05 06:30:20;;;;;;;60.95;7.25;;;13.50;99.90;;;;;;5072460;28;20021;-76
2023/01/05 06:32:45;;;;;;;71.28;5.90;;;13.50;99.90;;;;;;5073693;28;20029;-76
2023/01/05 06:35:11;;;;;;;63.47;6.15;;;13.50;99.90;;;;;;5073498;28;20090;-76
2023/01/05 06:37:37;;;;;;;78.13;8.63;;;13.50;99.90;;;;;;5073566;28;20110;-76
2023/01/05 06:40:03;;;;;;;67.28;7.20;;;13.50;99.90;;;;;;5072962;28;20036;-76
2023/01/05 06:42:29;;;;;;;71.35;6.07;;;13.50;99.90;;;;;;5074032;28;20588;-77
2023/01/05 06:44:54;;;;;;;74.40;7.90;;;13.60;99.90;;;;;;5068746;28;20033;-75
2023/01/05 06:47:21;;;;;;;64.07;7.40;;;13.50;99.90;;;;;;5061377;28;20496;-76
2023/01/05 06:49:46;;;;;;;63.08;7.22;;;13.60;99.90;;;;;;5064505;28;20096;-75
2023/01/05 06:52:12;;;;;;;89.32;7.13;;;13.60;99.90;;;;;;5073294;28;20126;-76
2023/01/05 06:54:38;;;;;;;63.00;6.88;;;13.60;99.90;;;;;;5072451;28;20240;-77
2023/01/05 06:57:05;;;;;;;70.65;7.80;;;13.60;99.90;;;;;;5053308;28;20032;-78
2023/01/05 06:59:31;;;;;;;79.95;7.43;;;13.60;99.90;;;;;;5057975;28;20373;-77
2023/01/05 07:01:57;;;;;;;83.30;6.85;;;13.70;99.90;;;;;;5053509;28;20538;-77
2023/01/05 07:04:23;;;;;;;83.00;7.35;;;13.70;99.90;;;;;;5059808;28;20528;-76
2023/01/05 07:06:48;;;;;;;58.95;6.25;;;13.60;99.90;;;;;;5052025;28;20017;-77
2023/01/05 07:09:14;;;;;;;75.60;6.72;;;13.70;99.90;;;;;;5051803;28;20040;-77
2023/01/05 07:11:40;;;;;;;64.93;8.10;;;13.70;99.90;;;;;;5051789;28;20021;-78
2023/01/05 07:14:05;;;;;;;72.47;6.60;;;13.70;99.90;;;;;;5052994;28;20044;-77
2023/01/05 07:16:31;;;;;;;71.55;6.38;;;13.70;99.90;;;;;;5052130;28;20083;-78
2023/01/05 07:18:58;;;;;;;72.53;7.55;;;13.70;99.90;;;;;;5053042;28;20025;-80
2023/01/05 07:21:24;;;;;;;61.75;7.30;;;13.70;99.90;;;;;;5054791;28;20397;-82
2023/01/05 07:23:50;;;;;;;66.50;7.38;;;13.70;99.90;;;;;;5053923;28;20017;-82
2023/01/05 07:26:16;;;;;;;62.72;6.35;;;13.70;99.90;;;;;;5053457;28;20036;-81
2023/01/05 07:28:41;;;;;;;71.22;5.72;;;13.70;99.90;;;;;;5052740;28;20037;-78
2023/01/05 07:31:07;;;;;;;54.72;6.32;;;13.70;99.90;;;;;;5053091;28;20053;-76
2023/01/05 07:33:34;;;;;;;50.72;5.65;;;13.70;99.90;;;;;;5051295;28;20310;-75
2023/01/05 07:36:01;;;;;;;46.00;4.13;;;13.70;99.90;;;;;;5055499;28;20480;-75
2023/01/05 07:38:26;;;;;;;45.42;5.22;;;13.80;1.00;;;;;;5061228;28;20032;-75
2023/01/05 07:40:52;;;;;;;54.28;6.38;;;13.80;1.00;;;;;;5054258;28;20029;-76
2023/01/05 07:43:18;;;;;;;39.38;6.18;;;13.80;1.00;;;;;;5053007;28;20052;-74
2023/01/05 07:45:44;;;;;;;37.22;6.90;;;13.90;1.00;;;;;;5057010;28;20033;-75
2023/01/05 07:48:09;;;;;;;42.42;5.03;;;13.90;1.00;;;;;;5054900;28;20032;-75
2023/01/05 07:50:35;;;;;;;49.53;4.95;;;13.90;1.00;;;;;;5072096;28;20047;-73
2023/01/05 07:53:01;;;;;;;39.15;4.05;;;13.90;1.00;;;;;;5071280;28;20021;-72
2023/01/05 07:55:26;;;;;;;38.35;4.53;;;14.00;1.00;;;;;;5071988;28;20029;-74
2023/01/05 07:57:52;;;;;;;29.10;3.17;;;14.00;1.00;;;;;;5062661;28;20040;-74
2023/01/05 08:00:18;;;;;;;27.60;3.95;;;14.10;1.00;;;;;;5055396;28;20067;-75
2023/01/05 08:02:44;;;;;;;27.60;4.05;;;14.00;2.60;;;;;;5070528;28;20036;-73
2023/01/05 08:05:10;;;;;;;30.23;3.75;;;14.20;16.90;;;;;;5051899;28;20114;-73
2023/01/05 08:07:36;;;;;;;30.35;3.33;;;14.10;21.20;;;;;;5051744;28;20084;-71
2023/01/05 08:15:31;;;;;;;46.92;3.67;;;14.20;57.40;;;;;;5052025;28;20050;-74
2023/01/05 08:17:57;;;;;;;45.80;3.80;;;14.20;65.70;;;;;;5051652;28;20432;-73
2023/01/05 08:20:23;;;;;;;101.68;4.97;;;14.20;75.60;;;;;;5051378;28;20025;-74
2023/01/05 08:22:52;;;;;;;150.25;9.55;;;14.20;85.70;;;;;;5050101;28;20248;-73
2023/01/05 08:25:19;;;;;;;98.00;6.35;;;14.20;89.40;;;;;;5051435;28;20016;-73
2023/01/05 08:27:45;;;;;;;154.95;9.38;;;14.30;93.00;;;;;;5051394;28;20393;-73
2023/01/05 08:30:11;;;;;;;58.78;9.73;;;14.30;95.90;;;;;;5051400;28;20033;-74
2023/01/05 08:32:37;;;;;;;184.73;16.80;;;14.30;99.90;;;;;;5051130;28;20029;-73
2023/01/05 08:35:04;;;;;;;81.13;11.23;;;14.30;99.90;;;;;;5051302;28;20114;-73
2023/01/05 08:37:29;;;;;;;161.98;9.63;;;14.30;99.90;;;;;;5051026;28;20096;-73
2023/01/05 08:39:56;;;;;;;110.03;7.35;;;14.30;99.90;;;;;;5051241;28;20441;-73
2023/01/05 08:42:21;;;;;;;40.13;5.60;;;14.40;99.90;;;;;;5051234;28;20107;-74
2023/01/05 08:44:47;;;;;;;16.20;3.10;;;14.40;99.90;;;;;;5053101;28;20044;-75
2023/01/05 08:47:13;;;;;;;41.55;3.95;;;14.40;99.90;;;;;;5051890;28;20029;-74
2023/01/05 08:49:39;;;;;;;56.30;4.63;;;14.40;99.90;;;;;;5053547;28;20037;-75
2023/01/05 08:52:06;;;;;;;14.65;2.38;;;14.40;99.90;;;;;;5052721;28;20017;-75
2023/01/05 08:54:31;;;;;;;11.40;1.80;;;14.40;99.90;;;;;;5052411;28;20031;-75
2023/01/05 08:56:57;;;;;;;14.48;2.25;;;14.40;99.90;;;;;;5052296;28;20104;-74
2023/01/05 08:59:23;;;;;;;24.38;3.30;;;14.40;99.90;;;;;;5051303;28;20028;-73
2023/01/05 09:01:49;;;;;;;12.80;3.95;;;14.50;99.90;;;;;;5051280;28;20032;-74
2023/01/05 09:04:14;;;;;;;11.73;2.17;;;14.40;99.90;;;;;;5051722;28;20111;-73
2023/01/05 09:06:40;;;;;;;42.58;3.60;;;14.40;99.90;;;;;;5051477;28;20381;-75
2023/01/05 09:09:06;;;;;;;28.95;2.88;;;14.40;99.90;;;;;;5051332;28;20036;-74
2023/01/05 09:11:33;;;;;;;16.05;2.17;;;14.50;99.90;;;;;;5051213;28;20495;-73
2023/01/05 09:14:01;;;;;;;32.80;3.83;;;14.50;99.90;;;;;;5051082;28;20532;-72
2023/01/05 09:16:29;;;;;;;39.97;4.43;;;14.50;99.90;;;;;;5055455;28;20175;-73
2023/01/05 09:18:57;;;;;;;23.95;3.72;;;14.50;99.90;;;;;;5055704;28;20461;-74
2023/01/05 09:21:22;;;;;;;135.13;9.32;;;14.50;99.90;;;;;;5055840;28;20465;-74
2023/01/05 09:23:48;;;;;;;26.23;3.30;;;14.60;99.90;;;;;;5053758;28;20021;-73
2023/01/05 09:26:14;;;;;;;61.10;6.20;;;14.50;99.90;;;;;;5055561;28;20029;-74
2023/01/05 09:28:41;;;;;;;36.65;3.25;;;14.60;99.90;;;;;;5055357;28;20037;-74
2023/01/05 09:31:16;;;;;;;32.60;4.28;;;14.60;99.90;;;;;;5037533;28;20520;-74
2023/01/05 09:33:43;;;;;;;114.13;7.60;;;14.50;99.90;;;;;;5054662;28;20086;-74
2023/01/05 09:36:13;;;;;;;147.23;7.93;;;14.60;99.90;;;;;;5056390;28;20029;-73
2023/01/05 09:38:39;;;;;;;225.07;16.33;;;14.50;99.90;;;;;;5055922;28;20033;-74
2023/01/05 09:41:13;;;;;;;60.72;3.85;;;14.60;99.90;;;;;;5055129;28;20017;-74
2023/01/05 09:43:41;;;;;;;40.65;3.17;;;14.60;99.90;;;;;;5054978;28;20048;-73
2023/01/05 09:46:15;;;;;;;62.03;4.57;;;14.50;99.90;;;;;;5054739;28;20027;-74
2023/01/05 09:48:45;;;;;;;80.18;6.68;;;14.50;99.90;;;;;;5054676;28;20473;-74
2023/01/05 09:51:12;;;;;;;215.90;10.07;;;14.50;99.90;;;;;;5055064;28;20033;-74
2023/01/05 09:53:39;;;;;;;199.90;9.02;;;14.50;99.90;;;;;;5054534;28;20112;-73
2023/01/05 09:56:05;;;;;;;68.97;5.00;;;14.60;99.90;;;;;;5054339;28;20022;-73
2023/01/05 09:58:40;;;;;;;288.88;16.05;;;14.60;99.90;;;;;;5053297;28;20465;-73
2023/01/05 10:01:12;;;;;;;113.05;7.30;;;14.60;99.90;;;;;;5054475;28;20028;-74
2023/01/05 10:03:43;;;;;;;86.20;6.43;;;14.60;99.90;;;;;;5054228;28;20380;-74
2023/01/05 10:06:14;;;;;;;185.65;8.65;;;14.60;99.90;;;;;;5054254;28;20025;-73
2023/01/05 10:08:43;;;;;;;231.35;11.48;;;14.60;99.90;;;;;;5054416;28;20443;-73
2023/01/05 10:14:39;;;;;;;314.45;16.75;;;14.60;1.00;;;;;;5053906;28;20106;-74
2023/01/05 10:17:13;;;;;;;293.63;15.85;;;14.60;1.00;;;;;;5045805;28;20029;-73
2023/01/05 10:19:39;;;;;;;111.63;5.00;;;14.70;1.00;;;;;;5054102;28;20025;-73
2023/01/05 10:22:24;;;;;;;291.27;14.38;;;14.70;1.00;;;;;;5054359;28;20079;-73
2023/01/05 10:25:00;;;;;;;291.38;16.00;;;14.70;1.00;;;;;;5053888;28;20032;-73
2023/01/05 10:27:35;;;;;;;155.07;8.55;;;14.80;16.10;;;;;;5053778;28;20033;-74
2023/01/05 10:30:19;;;;;;;102.90;6.85;;;14.80;36.50;;;;;;5053834;28;20025;-75
2023/01/05 10:32:54;;;;;;;61.58;9.13;;;14.90;68.60;;;;;;5053923;28;20025;-74
2023/01/05 10:35:40;;;;;;;239.27;18.38;;;15.00;89.80;;;;;;5053759;28;20108;-75
2023/01/05 10:38:29;;;;;;;26.88;6.55;;;15.00;97.40;;;;;;5053941;28;20021;-75
2023/01/05 10:41:22;;;;;;;31.17;7.97;;;15.10;99.90;;;;;;5053696;28;20021;-74
2023/01/05 10:44:03;;;;;;;21.92;7.05;;;15.10;99.90;;;;;;5053790;28;20028;-76
2023/01/05 10:46:29;;;;;;;29.10;7.10;;;15.10;99.90;;;;;;5053606;28;20018;-76
2023/01/05 10:48:55;;;;;;;50.58;12.88;;;15.10;99.90;;;;;;5053720;28;20079;-75
2023/01/05 10:51:21;;;;;;;33.38;8.20;;;15.10;99.90;;;;;;5053415;28;20099;-75
2023/01/05 10:53:46;;;;;;;58.90;13.18;;;15.20;99.90;;;;;;5053321;28;20029;-75
2023/01/05 10:56:21;;;;;;;32.85;8.60;;;15.20;99.90;;;;;;5055258;28;20017;-74
2023/01/05 10:58:47;;;;;;;45.00;11.98;;;15.20;99.90;;;;;;5059775;28;20456;-73
2023/01/05 11:01:29;;;;;;;46.65;11.55;;;15.20;99.90;;;;;;5054959;28;20048;-75
2023/01/05 11:04:16;;;;;;;54.65;13.88;;;15.30;99.90;;;;;;5053874;28;20056;-75
2023/01/05 11:06:42;;;;;;;62.50;15.57;;;15.30;87.90;;;;;;5040671;28;20039;-75
2023/01/05 11:09:25;;;;;;;59.50;13.38;;;15.30;43.20;;;;;;5052356;28;20110;-75
2023/01/05 11:11:58;;;;;;;48.65;11.52;;;15.30;27.20;;;;;;5053613;28;20115;-74
2023/01/05 11:14:27;;;;;;;38.63;10.93;;;15.30;1.00;;;;;;5053370;28;20146;-74
2023/01/05 11:16:59;;;;;;;35.10;9.02;;;15.30;1.00;;;;;;5053722;28;20025;-75
2023/01/05 11:19:31;;;;;;;54.40;13.25;;;15.30;99.90;;;;;;5073144;28;20084;-74
2023/01/05 11:21:57;;;;;;;48.70;11.00;;;15.30;99.90;;;;;;5074739;28;20563;-73
2023/01/05 11:24:23;;;;;;;34.95;7.70;;;15.20;99.90;;;;;;5075527;28;20056;-74
2023/01/05 11:26:51;;;;;;;27.35;6.05;;;15.20;99.90;;;;;;5074698;28;20016;-73
2023/01/05 11:29:17;;;;;;;26.75;6.68;;;15.10;99.90;;;;;;5067474;28;20039;-75
2023/01/05 11:32:08;;;;;;;36.30;7.78;;;15.20;99.90;;;;;;5052934;28;20025;-75
2023/01/05 11:34:43;;;;;;;35.17;5.97;;;15.20;99.90;;;;;;5052962;28;20072;-75
2023/01/05 11:37:11;;;;;;;24.55;5.03;;;15.10;99.90;;;;;;5050459;28;20033;-74
2023/01/05 11:39:47;;;;;;;23.33;4.63;;;15.10;99.90;;;;;;5052882;28;20100;-74
2023/01/05 11:42:19;;;;;;;25.27;6.82;;;15.20;99.90;;;;;;5052790;28;20107;-74
2023/01/05 11:44:49;;;;;;;32.13;5.97;;;15.20;99.90;;;;;;5052552;28;20393;-73
2023/01/05 11:47:28;;;;;;;21.65;7.70;;;15.20;99.90;;;;;;5052613;28;20029;-73
2023/01/05 11:50:08;;;;;;;17.30;5.75;;;15.20;99.90;;;;;;5052247;28;20401;-73
2023/01/05 11:52:38;;;;;;;21.38;6.95;;;15.20;99.90;;;;;;5052562;28;20072;-72
2023/01/05 11:55:19;;;;;;;16.38;4.90;;;15.20;99.90;;;;;;5052216;28;20477;-74
2023/01/05 11:57:45;;;;;;;22.80;4.93;;;15.20;99.90;;;;;;5052243;28;20043;-75
2023/01/05 12:00:33;;;;;;;37.00;8.10;;;15.20;99.90;;;;;;5052059;28;20104;-75
2023/01/05 12:03:17;;;;;;;21.33;4.50;;;15.20;99.90;;;;;;5051994;28;20043;-74
2023/01/05 12:05:55;;;;;;;24.17;5.80;;;15.10;99.90;;;;;;5052387;28;20512;-74
2023/01/05 12:08:43;;;;;;;28.23;4.75;;;15.10;99.90;;;;;;5051586;28;20044;-75
2023/01/05 12:11:20;;;;;;;21.90;5.30;;;15.10;99.90;;;;;;5051920;28;20048;-75
2023/01/05 12:14:13;;;;;;;19.67;6.32;;;15.10;99.90;;;;;;5052056;28;20049;-76
2023/01/05 12:16:52;;;;;;;15.07;4.82;;;15.20;99.90;;;;;;5051643;28;20040;-74
2023/01/05 12:20:03;;;;;;;27.92;5.32;;;15.20;88.50;;;;;;5051456;28;20032;-73
2023/01/05 12:23:04;;;;;;;28.70;5.95;;;15.20;81.50;;;;;;5048213;28;20033;-73
2023/01/05 12:25:49;;;;;;;42.15;5.57;;;15.20;53.90;;;;;;5051127;28;20141;-74
2023/01/05 12:28:49;;;;;;;28.08;5.68;;;15.30;44.50;;;;;;5051211;28;20098;-73
2023/01/05 12:31:26;;;;;;;38.08;5.68;;;15.30;20.70;;;;;;5024333;28;20064;-73
2023/01/05 12:34:15;;;;;;;27.63;4.45;;;15.30;4.30;;;;;;5051402;28;20032;-73
2023/01/05 12:36:57;;;;;;;29.70;4.18;;;15.30;1.00;;;;;;5050790;28;20128;-74
2023/01/05 12:40:00;;;;;;;24.40;4.47;;;15.30;1.00;;;;;;5050067;28;20025;-74
2023/01/05 12:42:42;;;;;;;25.55;3.97;;;15.30;1.00;;;;;;5051467;28;20025;-75
2023/01/05 12:45:16;;;;;;;32.35;4.13;;;15.40;1.00;;;;;;5051424;28;20095;-76
2023/01/05 12:48:14;;;;;;;34.08;4.50;;;15.40;1.00;;;;;;5051216;28;20037;-76
2023/01/05 12:51:09;;;;;;;46.05;5.05;;;15.40;99.90;;;;;;5048121;28;20486;-77
2023/01/05 12:53:34;;;;;;;45.10;5.05;;;15.40;99.90;;;;;;5051277;28;20036;-77
2023/01/05 12:56:14;;;;;;;43.45;4.65;;;15.50;99.90;;;;;;5051087;28;20083;-75
2023/01/05 12:59:05;;;;;;;33.53;5.03;;;15.50;99.90;;;;;;5051303;28;20048;-76
2023/01/05 13:01:37;;;;;;;24.38;3.85;;;15.50;99.90;;;;;;5052067;28;20029;-78
2023/01/05 13:04:34;;;;;;;30.23;3.90;;;15.50;99.90;;;;;;5063197;28;20048;-78
2023/01/05 13:07:06;;;;;;;34.10;4.97;;;15.50;99.90;;;;;;5056933;28;20072;-79
2023/01/05 13:09:34;;;;;;;35.60;5.47;;;15.40;99.90;;;;;;5054876;28;20024;-77
2023/01/05 13:12:05;;;;;;;40.20;4.68;;;15.40;99.90;;;;;;5051321;28;20036;-79
2023/01/05 13:14:34;;;;;;;30.05;5.57;;;15.40;99.90;;;;;;5051006;28;20045;-77
2023/01/05 13:17:25;;;;;;;40.17;5.00;;;15.40;99.90;;;;;;5050950;28;20057;-78
2023/01/05 13:20:06;;;;;;;42.47;4.18;;;15.40;99.90;;;;;;5042530;28;20041;-77
2023/01/05 13:22:34;;;;;;;45.97;4.30;;;15.30;99.90;;;;;;5049576;28;20060;-76
2023/01/05 13:25:03;;;;;;;36.13;6.10;;;15.30;99.90;;;;;;5051105;28;20048;-77
2023/01/05 13:27:30;;;;;;;39.00;4.65;;;15.30;99.90;;;;;;5050973;28;20032;-78
2023/01/05 13:29:59;;;;;;;56.60;5.00;;;15.30;99.90;;;;;;5054249;28;20375;-78